1896 Hurricane NOT_NAMED (1896300N09316)


IBTrACS version v04r00. Visit IBTrACS website for data access.
Please direct all questions to the IBTrACS Q and A forum

Storm track - Intensity - Wind Radii - Intensity Data - Source Data - All data

Summary Information

Storm ID 1896300N09316
Start Oct 26 06Z
Max Intensity 85 kt (Oct 29 18Z)
End Nov 9 18Z
ATCF IDs AL061896
Track status Best track data.

Storm track plot

Map of storm track

Intensity plots

Map of storm track

Radial wind information

No radial wind information for this storm


Position and Intensity Table

BASIN ISO_TIME_________ NATURE LAT LON WMO WIND USA WIND
degrees north degrees east kts kts
NA 1896-10-26 06:00:00 TS 8.70 -44.20 35 35
NA 09:00:00 TS 8.69 -44.63 35
NA 12:00:00 TS 8.70 -45.00 35 35
NA 15:00:00 TS 8.74 -45.27 37
NA 18:00:00 TS 8.80 -45.50 40 40
NA 21:00:00 TS 8.85 -45.74 40
NA 1896-10-27 00:00:00 TS 8.90 -46.00 40 40
NA 03:00:00 TS 8.94 -46.28 42
NA 06:00:00 TS 9.00 -46.60 45 45
NA 09:00:00 TS 9.08 -46.98 45
NA 12:00:00 TS 9.20 -47.40 45 45
NA 15:00:00 TS 9.34 -47.84 47
NA 18:00:00 TS 9.50 -48.30 50 50
NA 21:00:00 TS 9.65 -48.75 52
NA 1896-10-28 00:00:00 TS 9.80 -49.20 55 55
NA 03:00:00 TS 9.94 -49.65 57
NA 06:00:00 TS 10.10 -50.10 60 60
NA 09:00:00 TS 10.29 -50.55 62
NA 12:00:00 TS 10.50 -51.00 65 65
NA 15:00:00 TS 10.69 -51.45 65
NA 18:00:00 TS 10.90 -51.90 65 65
NA 21:00:00 TS 11.13 -52.35 67
NA 1896-10-29 00:00:00 TS 11.40 -52.80 70 70
NA 03:00:00 TS 11.69 -53.25 72
NA 06:00:00 TS 12.00 -53.70 75 75
NA 09:00:00 TS 12.28 -54.17 77
NA 12:00:00 TS 12.60 -54.60 80 80
NA 15:00:00 TS 12.98 -54.99 82
NA 18:00:00 TS 13.40 -55.30 85 85
NA 21:00:00 TS 13.79 -55.54 85
NA 1896-10-30 00:00:00 TS 14.20 -55.70 85 85
NA 03:00:00 TS 14.63 -55.82 85
NA 06:00:00 TS 15.10 -55.90 85 85
NA 09:00:00 TS 15.58 -55.97 85
NA 12:00:00 TS 16.10 -56.00 85 85
NA 15:00:00 TS 16.64 -56.02 85
NA 18:00:00 TS 17.20 -56.00 85 85
NA 21:00:00 TS 17.75 -55.92 85
NA 1896-10-31 00:00:00 TS 18.30 -55.80 85 85
NA 03:00:00 TS 18.86 -55.67 85
NA 06:00:00 TS 19.40 -55.50 85 85
NA 09:00:00 TS 19.91 -55.28 85
NA 12:00:00 TS 20.40 -55.00 85 85
NA 15:00:00 TS 20.91 -54.66 85
NA 18:00:00 TS 21.40 -54.30 85 85
NA 21:00:00 TS 21.86 -53.95 85
NA 1896-11-01 00:00:00 TS 22.30 -53.60 85 85
NA 03:00:00 TS 22.71 -53.24 85
NA 06:00:00 TS 23.10 -52.90 85 85
NA 09:00:00 TS 23.50 -52.59 85
NA 12:00:00 TS 23.90 -52.30 85 85
NA 15:00:00 TS 24.31 -51.99 85
NA 18:00:00 TS 24.70 -51.70 85 85
NA 21:00:00 TS 25.06 -51.45 85
NA 1896-11-02 00:00:00 TS 25.40 -51.20 85 85
NA 03:00:00 TS 25.76 -50.91 85
NA 06:00:00 TS 26.10 -50.60 85 85
NA 09:00:00 TS 26.41 -50.30 85
NA 12:00:00 TS 26.70 -50.00 85 85
NA 15:00:00 TS 27.00 -49.70 85
NA 18:00:00 TS 27.30 -49.40 85 85
NA 21:00:00 TS 27.60 -49.11 85
NA 1896-11-03 00:00:00 TS 27.90 -48.80 85 85
NA 03:00:00 TS 28.20 -48.45 85
NA 06:00:00 TS 28.50 -48.10 85 85
NA 09:00:00 TS 28.80 -47.80 85
NA 12:00:00 TS 29.10 -47.50 85 85
NA 15:00:00 TS 29.40 -47.16 85
NA 18:00:00 TS 29.70 -46.80 85 85
NA 21:00:00 TS 30.00 -46.45 85
NA 1896-11-04 00:00:00 TS 30.30 -46.10 85 85
NA 03:00:00 TS 30.60 -45.76 85
NA 06:00:00 TS 30.90 -45.40 85 85
NA 09:00:00 TS 31.18 -45.02 85
NA 12:00:00 TS 31.50 -44.60 85 85
NA 15:00:00 TS 31.87 -44.13 85
NA 18:00:00 TS 32.30 -43.60 85 85
NA 21:00:00 TS 32.77 -43.02 85
NA 1896-11-05 00:00:00 TS 33.30 -42.40 85 85
NA 03:00:00 TS 33.89 -41.72 85
NA 06:00:00 TS 34.50 -41.10 85 85
NA 09:00:00 TS 35.03 -40.68 85
NA 12:00:00 TS 35.60 -40.30 85 85
NA 15:00:00 TS 36.28 -39.76 85
NA 18:00:00 TS 37.00 -39.30 85 85
NA 21:00:00 TS 37.70 -39.02 85
NA 1896-11-06 00:00:00 TS 38.40 -39.00 85 85
NA 03:00:00 TS 39.16 -39.23 85
NA 06:00:00 TS 39.80 -39.70 85 85
NA 09:00:00 TS 40.21 -40.36 82
NA 12:00:00 TS 40.40 -41.00 80 80
NA 15:00:00 TS 40.47 -41.30 80
NA 18:00:00 TS 40.40 -41.50 80 80
NA 21:00:00 TS 40.29 -41.80 80
NA 1896-11-07 00:00:00 TS 40.10 -42.10 80 80
NA 03:00:00 TS 39.87 -42.36 77
NA 06:00:00 TS 39.60 -42.60 75 75
NA 09:00:00 TS 39.30 -42.84 75
NA 12:00:00 TS 39.00 -43.00 75 75
NA 15:00:00 TS 38.75 -43.07 75
NA 18:00:00 TS 38.50 -43.00 75 75
NA 21:00:00 TS 38.20 -42.81 72
NA 1896-11-08 00:00:00 TS 37.90 -42.50 70 70
NA 03:00:00 TS 37.63 -42.14 70
NA 06:00:00 TS 37.40 -41.70 70 70
NA 09:00:00 TS 37.19 -41.22 67
NA 12:00:00 TS 37.00 -40.70 65 65
NA 15:00:00 TS 36.78 -40.17 62
NA 18:00:00 TS 36.60 -39.60 60 60
NA 21:00:00 TS 36.48 -38.99 57
NA 1896-11-09 00:00:00 TS 36.40 -38.30 55 55
NA 03:00:00 TS 36.30 -37.53 52
NA 06:00:00 TS 36.20 -36.70 50 50
NA 09:00:00 TS 36.09 -35.81 47
NA 12:00:00 TS 36.00 -35.00 45 45
NA 15:00:00 TS 35.98 -34.39 40
NA 18:00:00 TS 36.00 -33.90 35 35

Source Information

Agency Information
USA hurdat2-1851-2018-051019.txt:Line=8600:UNNAMED
TOKYO
CMA
HKO
NEWDELHI
REUNION
BOM
NADI
WELLINGTON
DS824
TD9636
TD9635
NEUMANN
MLC

All available IBTrACS Data

SEASON BASIN SUBBASIN ISO_TIME_________ NATURE LAT LON WMO WIND WMO AGENCY DIST2LAND LANDFALL IFLAG USA AGENCY USA ATCF_ID USA LAT USA LON USA STATUS USA WIND USA SSHS STORM SPEED STORM DIR
Year degrees north degrees east kts km km degrees north degrees east kts 1 kts degrees
1896 NA NA 1896-10-26 06:00:00 TS 8.70 -44.20 35 hurdat_atl 926 889 O_____________ hurdat_atl AL061896 8.70 -44.20 TS 35 0 9 269
1896 NA NA 09:00:00 TS 8.69 -44.63 889 853 P_____________ AL061896 8.69 -44.63 TS 35 0 8 270
1896 NA NA 12:00:00 TS 8.70 -45.00 35 hurdat_atl 853 826 O_____________ hurdat_atl AL061896 8.70 -45.00 TS 35 0 6 275
1896 NA NA 15:00:00 TS 8.74 -45.27 826 815 P_____________ AL061896 8.74 -45.27 TS 37 0 5 281
1896 NA NA 18:00:00 TS 8.80 -45.50 40 hurdat_atl 815 798 O_____________ hurdat_atl AL061896 8.80 -45.50 TS 40 0 5 283
1896 NA NA 21:00:00 TS 8.85 -45.74 798 780 P_____________ AL061896 8.85 -45.74 TS 40 0 5 281
1896 NA NA 1896-10-27 00:00:00 TS 8.90 -46.00 40 hurdat_atl 780 755 O_____________ hurdat_atl AL061896 8.90 -46.00 TS 40 0 5 280
1896 NA NA 03:00:00 TS 8.94 -46.28 755 739 P_____________ AL061896 8.94 -46.28 TS 42 0 6 280
1896 NA NA 06:00:00 TS 9.00 -46.60 45 hurdat_atl 739 717 O_____________ hurdat_atl AL061896 9.00 -46.60 TS 45 0 7 282
1896 NA NA 09:00:00 TS 9.08 -46.98 717 697 P_____________ AL061896 9.08 -46.98 TS 45 0 8 284
1896 NA NA 12:00:00 TS 9.20 -47.40 45 hurdat_atl 697 680 O_____________ hurdat_atl AL061896 9.20 -47.40 TS 45 0 9 287
1896 NA NA 15:00:00 TS 9.34 -47.84 680 670 P_____________ AL061896 9.34 -47.84 TS 47 0 9 289
1896 NA NA 18:00:00 TS 9.50 -48.30 50 hurdat_atl 670 654 O_____________ hurdat_atl AL061896 9.50 -48.30 TS 50 0 9 289
1896 NA NA 21:00:00 TS 9.65 -48.75 647 637 P_____________ AL061896 9.65 -48.75 TS 52 0 9 289
1896 NA NA 1896-10-28 00:00:00 TS 9.80 -49.20 55 hurdat_atl 637 621 O_____________ hurdat_atl AL061896 9.80 -49.20 TS 55 0 9 288
1896 NA NA 03:00:00 TS 9.94 -49.65 616 609 P_____________ AL061896 9.94 -49.65 TS 57 0 9 289
1896 NA NA 06:00:00 TS 10.10 -50.10 60 hurdat_atl 614 604 O_____________ hurdat_atl AL061896 10.10 -50.10 TS 60 0 10 292
1896 NA NA 09:00:00 TS 10.29 -50.55 610 606 P_____________ AL061896 10.29 -50.55 TS 62 0 10 294
1896 NA NA 12:00:00 TS 10.50 -51.00 65 hurdat_atl 615 609 O_____________ hurdat_atl AL061896 10.50 -51.00 HU 65 1 10 294
1896 NA NA 15:00:00 TS 10.69 -51.45 614 609 P_____________ AL061896 10.69 -51.45 HU 65 1 10 294
1896 NA NA 18:00:00 TS 10.90 -51.90 65 hurdat_atl 614 610 O_____________ hurdat_atl AL061896 10.90 -51.90 HU 65 1 10 297
1896 NA NA 21:00:00 TS 11.13 -52.35 615 615 P_____________ AL061896 11.13 -52.35 HU 67 1 10 300
1896 NA NA 1896-10-29 00:00:00 TS 11.40 -52.80 70 hurdat_atl 635 632 O_____________ hurdat_atl AL061896 11.40 -52.80 HU 70 1 10 302
1896 NA NA 03:00:00 TS 11.69 -53.25 657 657 P_____________ AL061896 11.69 -53.25 HU 72 1 11 304
1896 NA NA 06:00:00 TS 12.00 -53.70 75 hurdat_atl 685 684 O_____________ hurdat_atl AL061896 12.00 -53.70 HU 75 1 11 304
1896 NA NA 09:00:00 TS 12.28 -54.17 712 704 P_____________ AL061896 12.28 -54.17 HU 77 1 11 304
1896 NA NA 12:00:00 TS 12.60 -54.60 80 hurdat_atl 705 698 O_____________ hurdat_atl AL061896 12.60 -54.60 HU 80 1 11 311
1896 NA NA 15:00:00 TS 12.98 -54.99 702 685 P_____________ AL061896 12.98 -54.99 HU 82 1 11 320
1896 NA NA 18:00:00 TS 13.40 -55.30 85 hurdat_atl 689 680 O_____________ hurdat_atl AL061896 13.40 -55.30 HU 85 2 10 326
1896 NA NA 21:00:00 TS 13.79 -55.54 691 682 P_____________ AL061896 13.79 -55.54 HU 85 2 9 334
1896 NA NA 1896-10-30 00:00:00 TS 14.20 -55.70 85 hurdat_atl 696 696 O_____________ hurdat_atl AL061896 14.20 -55.70 HU 85 2 9 342
1896 NA NA 03:00:00 TS 14.63 -55.82 713 713 P_____________ AL061896 14.63 -55.82 HU 85 2 9 348
1896 NA NA 06:00:00 TS 15.10 -55.90 85 hurdat_atl 740 740 O_____________ hurdat_atl AL061896 15.10 -55.90 HU 85 2 10 352
1896 NA NA 09:00:00 TS 15.58 -55.97 770 770 P_____________ AL061896 15.58 -55.97 HU 85 2 10 354
1896 NA NA 12:00:00 TS 16.10 -56.00 85 hurdat_atl 811 811 O_____________ hurdat_atl AL061896 16.10 -56.00 HU 85 2 11 357
1896 NA NA 15:00:00 TS 16.64 -56.02 853 853 P_____________ AL061896 16.64 -56.02 HU 85 2 11 0
1896 NA NA 18:00:00 TS 17.20 -56.00 85 hurdat_atl 905 905 O_____________ hurdat_atl AL061896 17.20 -56.00 HU 85 2 11 5
1896 NA NA 21:00:00 TS 17.75 -55.92 957 957 P_____________ AL061896 17.75 -55.92 HU 85 2 11 10
1896 NA NA 1896-10-31 00:00:00 TS 18.30 -55.80 85 hurdat_atl 1018 1018 O_____________ hurdat_atl AL061896 18.30 -55.80 HU 85 2 11 12
1896 NA NA 03:00:00 TS 18.86 -55.67 1044 1044 P_____________ AL061896 18.86 -55.67 HU 85 2 11 14
1896 NA NA 06:00:00 TS 19.40 -55.50 85 hurdat_atl 1068 1068 O_____________ hurdat_atl AL061896 19.40 -55.50 HU 85 2 11 19
1896 NA NA 09:00:00 TS 19.91 -55.28 1094 1094 P_____________ AL061896 19.91 -55.28 HU 85 2 11 25
1896 NA NA 12:00:00 TS 20.40 -55.00 85 hurdat_atl 1133 1133 O_____________ hurdat_atl AL061896 20.40 -55.00 HU 85 2 12 30
1896 NA NA 15:00:00 TS 20.91 -54.66 1174 1174 P_____________ AL061896 20.91 -54.66 HU 85 2 12 33
1896 NA NA 18:00:00 TS 21.40 -54.30 85 hurdat_atl 1227 1227 O_____________ hurdat_atl AL061896 21.40 -54.30 HU 85 2 12 35
1896 NA NA 21:00:00 TS 21.86 -53.95 1281 1281 P_____________ AL061896 21.86 -53.95 HU 85 2 11 36
1896 NA NA 1896-11-01 00:00:00 TS 22.30 -53.60 85 hurdat_atl 1324 1324 O_____________ hurdat_atl AL061896 22.30 -53.60 HU 85 2 11 38
1896 NA NA 03:00:00 TS 22.71 -53.24 1376 1376 P_____________ AL061896 22.71 -53.24 HU 85 2 10 39
1896 NA NA 06:00:00 TS 23.10 -52.90 85 hurdat_atl 1420 1420 O_____________ hurdat_atl AL061896 23.10 -52.90 HU 85 2 10 37
1896 NA NA 09:00:00 TS 23.50 -52.59 1464 1464 P_____________ AL061896 23.50 -52.59 HU 85 2 10 35
1896 NA NA 12:00:00 TS 23.90 -52.30 85 hurdat_atl 1508 1508 O_____________ hurdat_atl AL061896 23.90 -52.30 HU 85 2 10 34
1896 NA NA 15:00:00 TS 24.31 -51.99 1553 1553 P_____________ AL061896 24.31 -51.99 HU 85 2 10 34
1896 NA NA 18:00:00 TS 24.70 -51.70 85 hurdat_atl 1599 1599 O_____________ hurdat_atl AL061896 24.70 -51.70 HU 85 2 9 33
1896 NA NA 21:00:00 TS 25.06 -51.45 1644 1644 P_____________ AL061896 25.06 -51.45 HU 85 2 8 33
1896 NA NA 1896-11-02 00:00:00 TS 25.40 -51.20 85 hurdat_atl 1677 1677 O_____________ hurdat_atl AL061896 25.40 -51.20 HU 85 2 9 35
1896 NA NA 03:00:00 TS 25.76 -50.91 1723 1723 P_____________ AL061896 25.76 -50.91 HU 85 2 9 38
1896 NA NA 06:00:00 TS 26.10 -50.60 85 hurdat_atl 1764 1764 O_____________ hurdat_atl AL061896 26.10 -50.60 HU 85 2 9 40
1896 NA NA 09:00:00 TS 26.41 -50.30 1806 1806 P_____________ AL061896 26.41 -50.30 HU 85 2 8 42
1896 NA NA 12:00:00 TS 26.70 -50.00 85 hurdat_atl 1848 1848 O_____________ hurdat_atl AL061896 26.70 -50.00 HU 85 2 8 42
1896 NA NA 15:00:00 TS 27.00 -49.70 1890 1890 P_____________ AL061896 27.00 -49.70 HU 85 2 8 42
1896 NA NA 18:00:00 TS 27.30 -49.40 85 hurdat_atl 1931 1931 O_____________ hurdat_atl AL061896 27.30 -49.40 HU 85 2 8 41
1896 NA NA 21:00:00 TS 27.60 -49.11 1973 1973 P_____________ AL061896 27.60 -49.11 HU 85 2 8 42
1896 NA NA 1896-11-03 00:00:00 TS 27.90 -48.80 85 hurdat_atl 2015 2015 O_____________ hurdat_atl AL061896 27.90 -48.80 HU 85 2 8 44
1896 NA NA 03:00:00 TS 28.20 -48.45 2065 2061 P_____________ AL061896 28.20 -48.45 HU 85 2 9 46
1896 NA NA 06:00:00 TS 28.50 -48.10 85 hurdat_atl 2063 2036 O_____________ hurdat_atl AL061896 28.50 -48.10 HU 85 2 8 44
1896 NA NA 09:00:00 TS 28.80 -47.80 2036 2010 P_____________ AL061896 28.80 -47.80 HU 85 2 8 41
1896 NA NA 12:00:00 TS 29.10 -47.50 85 hurdat_atl 2010 1984 O_____________ hurdat_atl AL061896 29.10 -47.50 HU 85 2 8 43
1896 NA NA 15:00:00 TS 29.40 -47.16 1984 1961 P_____________ AL061896 29.40 -47.16 HU 85 2 9 45
1896 NA NA 18:00:00 TS 29.70 -46.80 85 hurdat_atl 1961 1936 O_____________ hurdat_atl AL061896 29.70 -46.80 HU 85 2 9 46
1896 NA NA 21:00:00 TS 30.00 -46.45 1938 1914 P_____________ AL061896 30.00 -46.45 HU 85 2 9 45
1896 NA NA 1896-11-04 00:00:00 TS 30.30 -46.10 85 hurdat_atl 1914 1891 O_____________ hurdat_atl AL061896 30.30 -46.10 HU 85 2 8 45
1896 NA NA 03:00:00 TS 30.60 -45.76 1891 1868 P_____________ AL061896 30.60 -45.76 HU 85 2 9 45
1896 NA NA 06:00:00 TS 30.90 -45.40 85 hurdat_atl 1871 1848 O_____________ hurdat_atl AL061896 30.90 -45.40 HU 85 2 9 47
1896 NA NA 09:00:00 TS 31.18 -45.02 1852 1834 P_____________ AL061896 31.18 -45.02 HU 85 2 9 49
1896 NA NA 12:00:00 TS 31.50 -44.60 85 hurdat_atl 1834 1813 O_____________ hurdat_atl AL061896 31.50 -44.60 HU 85 2 10 48
1896 NA NA 15:00:00 TS 31.87 -44.13 1810 1788 P_____________ AL061896 31.87 -44.13 HU 85 2 12 47
1896 NA NA 18:00:00 TS 32.30 -43.60 85 hurdat_atl 1788 1763 O_____________ hurdat_atl AL061896 32.30 -43.60 HU 85 2 13 46
1896 NA NA 21:00:00 TS 32.77 -43.02 1761 1737 P_____________ AL061896 32.77 -43.02 HU 85 2 14 45
1896 NA NA 1896-11-05 00:00:00 TS 33.30 -42.40 85 hurdat_atl 1737 1707 O_____________ hurdat_atl AL061896 33.30 -42.40 HU 85 2 16 44
1896 NA NA 03:00:00 TS 33.89 -41.72 1711 1684 P_____________ AL061896 33.89 -41.72 HU 85 2 16 42
1896 NA NA 06:00:00 TS 34.50 -41.10 85 hurdat_atl 1684 1658 O_____________ hurdat_atl AL061896 34.50 -41.10 HU 85 2 14 37
1896 NA NA 09:00:00 TS 35.03 -40.68 1658 1626 P_____________ AL061896 35.03 -40.68 HU 85 2 13 31
1896 NA NA 12:00:00 TS 35.60 -40.30 85 hurdat_atl 1626 1596 O_____________ hurdat_atl AL061896 35.60 -40.30 HU 85 2 15 31
1896 NA NA 15:00:00 TS 36.28 -39.76 1593 1563 P_____________ AL061896 36.28 -39.76 HU 85 2 16 30
1896 NA NA 18:00:00 TS 37.00 -39.30 85 hurdat_atl 1563 1525 O_____________ hurdat_atl AL061896 37.00 -39.30 HU 85 2 15 23
1896 NA NA 21:00:00 TS 37.70 -39.02 1525 1471 P_____________ AL061896 37.70 -39.02 HU 85 2 14 10
1896 NA NA 1896-11-06 00:00:00 TS 38.40 -39.00 85 hurdat_atl 1471 1405 O_____________ hurdat_atl AL061896 38.40 -39.00 HU 85 2 15 354
1896 NA NA 03:00:00 TS 39.16 -39.23 1398 1322 P_____________ AL061896 39.16 -39.23 HU 85 2 15 339
1896 NA NA 06:00:00 TS 39.80 -39.70 85 hurdat_atl 1322 1254 O_____________ hurdat_atl AL061896 39.80 -39.70 HU 85 2 14 320
1896 NA NA 09:00:00 TS 40.21 -40.36 1248 1194 P_____________ AL061896 40.21 -40.36 HU 82 1 12 301
1896 NA NA 12:00:00 TS 40.40 -41.00 80 hurdat_atl 1194 1168 O_____________ hurdat_atl AL061896 40.40 -41.00 HU 80 1 8 290
1896 NA NA 15:00:00 TS 40.47 -41.30 1168 1162 P_____________ AL061896 40.47 -41.30 HU 80 1 4 270
1896 NA NA 18:00:00 TS 40.40 -41.50 80 hurdat_atl 1163 1151 O_____________ hurdat_atl AL061896 40.40 -41.50 HU 80 1 4 245
1896 NA NA 21:00:00 TS 40.29 -41.80 1151 1145 P_____________ AL061896 40.29 -41.80 HU 80 1 5 237
1896 NA NA 1896-11-07 00:00:00 TS 40.10 -42.10 80 hurdat_atl 1147 1141 O_____________ hurdat_atl AL061896 40.10 -42.10 HU 80 1 6 226
1896 NA NA 03:00:00 TS 39.87 -42.36 1144 1144 P_____________ AL061896 39.87 -42.36 HU 77 1 6 218
1896 NA NA 06:00:00 TS 39.60 -42.60 75 hurdat_atl 1156 1156 O_____________ hurdat_atl AL061896 39.60 -42.60 HU 75 1 7 212
1896 NA NA 09:00:00 TS 39.30 -42.84 1168 1162 P_____________ AL061896 39.30 -42.84 HU 75 1 7 207
1896 NA NA 12:00:00 TS 39.00 -43.00 75 hurdat_atl 1182 1182 O_____________ hurdat_atl AL061896 39.00 -43.00 HU 75 1 6 198
1896 NA NA 15:00:00 TS 38.75 -43.07 1201 1201 P_____________ AL061896 38.75 -43.07 HU 75 1 5 178
1896 NA NA 18:00:00 TS 38.50 -43.00 75 hurdat_atl 1224 1224 O_____________ hurdat_atl AL061896 38.50 -43.00 HU 75 1 6 160
1896 NA NA 21:00:00 TS 38.20 -42.81 1261 1261 P_____________ AL061896 38.20 -42.81 HU 72 1 7 147
1896 NA NA 1896-11-08 00:00:00 TS 37.90 -42.50 70 hurdat_atl 1303 1303 O_____________ hurdat_atl AL061896 37.90 -42.50 HU 70 1 8 137
1896 NA NA 03:00:00 TS 37.63 -42.14 1351 1351 P_____________ AL061896 37.63 -42.14 HU 70 1 8 128
1896 NA NA 06:00:00 TS 37.40 -41.70 70 hurdat_atl 1391 1391 O_____________ hurdat_atl AL061896 37.40 -41.70 HU 70 1 9 121
1896 NA NA 09:00:00 TS 37.19 -41.22 1436 1436 P_____________ AL061896 37.19 -41.22 HU 67 1 9 117
1896 NA NA 12:00:00 TS 37.00 -40.70 65 hurdat_atl 1481 1481 O_____________ hurdat_atl AL061896 37.00 -40.70 HU 65 1 9 116
1896 NA NA 15:00:00 TS 36.78 -40.17 1527 1527 P_____________ AL061896 36.78 -40.17 HU 62 0 10 114
1896 NA NA 18:00:00 TS 36.60 -39.60 60 hurdat_atl 1579 1579 O_____________ hurdat_atl AL061896 36.60 -39.60 TS 60 0 10 108
1896 NA NA 21:00:00 TS 36.48 -38.99 1622 1622 P_____________ AL061896 36.48 -38.99 TS 57 0 11 101
1896 NA NA 1896-11-09 00:00:00 TS 36.40 -38.30 55 hurdat_atl 1673 1673 O_____________ hurdat_atl AL061896 36.40 -38.30 TS 55 0 12 99
1896 NA NA 03:00:00 TS 36.30 -37.53 1730 1730 P_____________ AL061896 36.30 -37.53 TS 52 0 13 99
1896 NA NA 06:00:00 TS 36.20 -36.70 50 hurdat_atl 1788 1788 O_____________ hurdat_atl AL061896 36.20 -36.70 TS 50 0 14 99
1896 NA NA 09:00:00 TS 36.09 -35.81 1852 1852 P_____________ AL061896 36.09 -35.81 TS 47 0 14 98
1896 NA NA 12:00:00 TS 36.00 -35.00 45 hurdat_atl 1909 1859 O_____________ hurdat_atl AL061896 36.00 -35.00 TS 45 0 12 95
1896 NA NA 15:00:00 TS 35.98 -34.39 1859 1818 P_____________ AL061896 35.98 -34.39 TS 40 0 9 90
1896 NA NA 18:00:00 TS 36.00 -33.90 35 hurdat_atl 1818 O_____________ hurdat_atl AL061896 36.00 -33.90 TS 35 0 8 87